createdAt,value
2018-03-17T00:01:05.952Z,5.14
2018-03-17T00:03:32.130Z,5.11
2018-03-17T00:05:58.313Z,5.01
2018-03-17T00:08:24.520Z,4.89
2018-03-17T00:10:50.669Z,4.81
2018-03-17T00:13:16.853Z,4.72
2018-03-17T00:15:43.056Z,4.66
2018-03-17T00:18:09.275Z,4.66
2018-03-17T00:20:35.427Z,4.65
2018-03-17T00:23:01.665Z,4.60
2018-03-17T00:25:27.899Z,4.57
2018-03-17T00:27:54.059Z,4.49
2018-03-17T00:30:20.200Z,4.35
2018-03-17T00:32:46.405Z,4.28
2018-03-17T00:35:12.600Z,4.26
2018-03-17T00:37:38.811Z,4.21
2018-03-17T00:40:05.049Z,4.21
2018-03-17T00:42:31.214Z,4.17
2018-03-17T00:44:57.460Z,4.06
2018-03-17T00:47:23.630Z,4.01
2018-03-17T00:49:50.158Z,4.00
2018-03-17T00:52:16.349Z,3.98
2018-03-17T00:54:42.571Z,3.94
2018-03-17T00:57:08.724Z,3.90
2018-03-17T00:59:34.921Z,3.89
2018-03-17T01:02:01.157Z,3.84
2018-03-17T01:04:27.344Z,3.72
2018-03-17T01:06:53.563Z,3.66
2018-03-17T01:09:19.766Z,3.65
2018-03-17T01:11:45.899Z,3.65
2018-03-17T01:14:12.085Z,3.55
2018-03-17T01:16:38.334Z,3.49
2018-03-17T01:19:04.517Z,3.43
2018-03-17T01:21:30.680Z,3.38
2018-03-17T01:23:56.871Z,3.41
2018-03-17T01:26:23.099Z,3.43
2018-03-17T01:28:49.245Z,3.40
2018-03-17T01:31:15.393Z,3.43
2018-03-17T01:33:41.533Z,3.36
2018-03-17T01:36:07.726Z,3.31
2018-03-17T01:38:33.986Z,3.31
2018-03-17T01:41:00.145Z,3.25
2018-03-17T01:43:26.317Z,3.24
2018-03-17T01:45:52.509Z,3.21
2018-03-17T01:48:18.652Z,3.20
2018-03-17T01:50:44.826Z,3.13
2018-03-17T01:53:11.062Z,3.11
2018-03-17T01:55:37.303Z,3.10
2018-03-17T01:58:03.465Z,3.07
2018-03-17T02:00:29.623Z,3.01
2018-03-17T02:02:55.749Z,2.96
2018-03-17T02:05:22.010Z,2.91
2018-03-17T02:07:48.223Z,2.88
2018-03-17T02:10:14.450Z,2.84
2018-03-17T02:12:40.612Z,2.82
2018-03-17T02:15:06.805Z,2.82
2018-03-17T02:17:32.930Z,2.81
2018-03-17T02:19:59.053Z,2.78
2018-03-17T02:22:25.279Z,2.73
2018-03-17T02:24:52.784Z,2.71
2018-03-17T02:27:18.911Z,2.73
2018-03-17T02:29:45.107Z,2.67
2018-03-17T02:32:11.284Z,2.70
2018-03-17T02:34:37.532Z,2.70
2018-03-17T02:37:03.783Z,2.67
2018-03-17T02:39:29.909Z,2.60
2018-03-17T02:41:56.043Z,2.63
2018-03-17T02:44:23.242Z,2.62
2018-03-17T02:46:49.429Z,2.64
2018-03-17T02:49:15.606Z,2.60
2018-03-17T02:51:41.800Z,2.60
2018-03-17T02:54:08.002Z,2.54
2018-03-17T02:56:34.236Z,2.49
2018-03-17T02:59:00.451Z,2.53
2018-03-17T03:01:26.616Z,2.59
2018-03-17T03:03:52.802Z,2.55
2018-03-17T03:06:18.931Z,2.49
2018-03-17T03:08:45.163Z,2.52
2018-03-17T03:11:11.409Z,2.45
2018-03-17T03:13:37.605Z,2.40
2018-03-17T03:16:03.808Z,2.47
2018-03-17T03:18:29.953Z,2.45
2018-03-17T03:20:56.112Z,2.47
2018-03-17T03:23:23.247Z,2.39
2018-03-17T03:25:49.464Z,2.32
2018-03-17T03:28:16.338Z,2.23
2018-03-17T03:30:42.455Z,2.24
2018-03-17T03:33:08.589Z,2.23
2018-03-17T03:35:34.800Z,2.19
2018-03-17T03:38:01.082Z,2.21
2018-03-17T03:40:27.346Z,2.24
2018-03-17T03:42:53.552Z,2.24
2018-03-17T03:45:19.752Z,2.22
2018-03-17T03:47:45.920Z,2.20
2018-03-17T03:50:12.082Z,2.21
2018-03-17T03:52:38.249Z,2.15
2018-03-17T03:55:04.517Z,2.12
2018-03-17T03:57:30.741Z,2.06
2018-03-17T03:59:57.026Z,2.08
2018-03-17T04:02:23.188Z,2.01
2018-03-17T04:04:49.338Z,1.98
2018-03-17T04:07:15.594Z,1.95
2018-03-17T04:09:41.795Z,1.95
2018-03-17T04:12:08.009Z,1.95
2018-03-17T04:14:34.143Z,1.95
2018-03-17T04:17:00.380Z,1.97
2018-03-17T04:19:26.602Z,1.99
2018-03-17T04:21:53.890Z,2.01
2018-03-17T04:24:20.042Z,1.90
2018-03-17T04:26:46.281Z,1.87
2018-03-17T04:29:12.492Z,1.82
2018-03-17T04:31:38.658Z,1.80
2018-03-17T04:34:04.852Z,1.77
2018-03-17T04:36:31.073Z,1.76
2018-03-17T04:38:57.235Z,1.71
2018-03-17T04:41:23.581Z,1.69
2018-03-17T04:43:49.805Z,1.70
2018-03-17T04:46:16.015Z,1.75
2018-03-17T04:48:42.213Z,1.70
2018-03-17T04:51:08.422Z,1.65
2018-03-17T04:53:34.533Z,1.66
2018-03-17T04:56:00.698Z,1.67
2018-03-17T04:58:26.955Z,1.60
2018-03-17T05:00:54.658Z,1.59
2018-03-17T05:03:20.798Z,1.55
2018-03-17T05:05:46.986Z,1.41
2018-03-17T05:08:13.190Z,1.31
2018-03-17T05:10:39.316Z,1.26
2018-03-17T05:13:05.477Z,1.27
2018-03-17T05:15:31.690Z,1.12
2018-03-17T05:17:57.911Z,1.06
2018-03-17T05:20:24.059Z,1.04
2018-03-17T05:22:50.282Z,1.03
2018-03-17T05:25:16.475Z,1.03
2018-03-17T05:27:42.655Z,0.98
2018-03-17T05:30:08.807Z,1.00
2018-03-17T05:32:36.051Z,0.94
2018-03-17T05:35:02.244Z,0.95
2018-03-17T05:37:28.461Z,0.97
2018-03-17T05:39:54.644Z,0.93
2018-03-17T05:42:20.851Z,0.84
2018-03-17T05:44:47.179Z,0.80
2018-03-17T05:47:13.406Z,0.81
2018-03-17T05:49:39.568Z,0.81
2018-03-17T05:52:05.778Z,0.77
2018-03-17T05:54:31.960Z,0.69
2018-03-17T05:56:58.173Z,0.70
2018-03-17T05:59:24.336Z,0.60
2018-03-17T06:01:50.541Z,0.51
2018-03-17T06:04:16.843Z,0.44
2018-03-17T06:06:42.947Z,0.41
2018-03-17T06:09:09.153Z,0.40
2018-03-17T06:11:35.381Z,0.37
2018-03-17T06:14:01.651Z,0.35
2018-03-17T06:16:27.789Z,0.38
2018-03-17T06:18:53.987Z,0.38
2018-03-17T06:21:20.177Z,0.37
2018-03-17T06:23:46.376Z,0.38
2018-03-17T06:26:12.552Z,0.32
2018-03-17T06:28:38.783Z,0.33
2018-03-17T06:31:04.938Z,0.35
2018-03-17T06:33:31.125Z,0.38
2018-03-17T06:35:57.945Z,0.43
2018-03-17T06:38:24.116Z,0.40
2018-03-17T06:40:50.262Z,0.41
2018-03-17T06:43:16.419Z,0.41
2018-03-17T06:45:43.549Z,0.34
2018-03-17T06:48:09.802Z,0.31
2018-03-17T06:50:35.994Z,0.30
2018-03-17T06:53:02.144Z,0.28
2018-03-17T06:55:28.344Z,0.24
2018-03-17T06:57:54.650Z,0.18
2018-03-17T07:00:20.882Z,0.22
2018-03-17T07:02:47.018Z,0.17
2018-03-17T07:05:13.267Z,0.13
2018-03-17T07:07:39.488Z,0.14
2018-03-17T07:10:05.667Z,0.09
2018-03-17T07:12:31.920Z,0.07
2018-03-17T07:14:58.094Z,-0.07
2018-03-17T07:17:24.332Z,-0.10
2018-03-17T07:19:50.513Z,-0.09
2018-03-17T07:22:16.722Z,-0.14
2018-03-17T07:24:42.879Z,-0.12
2018-03-17T07:27:09.109Z,-0.10
2018-03-17T07:29:35.307Z,-0.07
2018-03-17T07:32:01.549Z,-0.03
2018-03-17T07:34:30.357Z,0.06
2018-03-17T07:36:56.521Z,-0.02
2018-03-17T07:39:22.762Z,-0.09
2018-03-17T07:41:49.037Z,-0.13
2018-03-17T07:44:15.299Z,-0.17
2018-03-17T07:46:41.508Z,-0.12
2018-03-17T07:49:07.674Z,-0.14
2018-03-17T07:51:33.988Z,-0.14
2018-03-17T07:54:00.122Z,-0.18
2018-03-17T07:56:26.221Z,-0.20
2018-03-17T07:58:52.416Z,-0.20
2018-03-17T08:01:18.536Z,-0.22
2018-03-17T08:03:44.695Z,-0.20
2018-03-17T08:06:10.913Z,-0.15
2018-03-17T08:08:37.242Z,-0.11
2018-03-17T08:11:03.400Z,-0.07
2018-03-17T08:13:29.559Z,0.01
2018-03-17T08:15:55.682Z,-0.07
2018-03-17T08:18:21.907Z,0.03
2018-03-17T08:20:48.009Z,-0.04
2018-03-17T08:23:14.148Z,-0.04
2018-03-17T08:25:40.339Z,-0.08
2018-03-17T08:28:06.607Z,-0.06
2018-03-17T08:30:32.725Z,-0.10
2018-03-17T08:32:58.904Z,-0.13
2018-03-17T08:35:25.068Z,-0.14
2018-03-17T08:37:51.257Z,-0.18
2018-03-17T08:40:17.487Z,-0.12
2018-03-17T08:42:43.610Z,-0.11
2018-03-17T08:45:09.715Z,-0.32
2018-03-17T08:47:35.995Z,-0.38
2018-03-17T08:50:02.349Z,-0.30
2018-03-17T08:52:29.083Z,-0.42
2018-03-17T08:54:55.333Z,-0.43
2018-03-17T08:57:21.519Z,-0.44
2018-03-17T08:59:48.021Z,-0.43
2018-03-17T09:02:14.342Z,-0.47
2018-03-17T09:04:40.667Z,-0.48
2018-03-17T09:07:06.906Z,-0.56
2018-03-17T09:09:33.160Z,-0.58
2018-03-17T09:12:00.484Z,-0.56
2018-03-17T09:14:26.850Z,-0.57
2018-03-17T09:16:53.063Z,-0.55
2018-03-17T09:19:19.273Z,-0.56
2018-03-17T09:24:49.858Z,-0.59
2018-03-17T09:27:16.967Z,-0.53
2018-03-17T09:29:43.544Z,-0.56
2018-03-17T09:32:09.742Z,-0.63
2018-03-17T09:34:35.949Z,-0.60
2018-03-17T09:37:02.294Z,-0.64
2018-03-17T09:39:28.484Z,-0.70
2018-03-17T09:41:54.750Z,-0.69
2018-03-17T09:44:21.537Z,-0.74
2018-03-17T09:46:48.153Z,-0.77
2018-03-17T09:49:24.508Z,-0.76
2018-03-17T09:51:51.541Z,-0.75
2018-03-17T09:54:17.977Z,-0.71
2018-03-17T09:56:45.017Z,-0.71
2018-03-17T09:59:11.832Z,-0.74
2018-03-17T10:01:39.443Z,-0.75
2018-03-17T10:04:25.509Z,-0.71
2018-03-17T10:06:51.981Z,-0.76
2018-03-17T10:09:19.420Z,-0.76
2018-03-17T10:14:49.532Z,-0.79
2018-03-17T10:17:15.972Z,-0.81
2018-03-17T10:22:39.863Z,-0.81
2018-03-17T10:28:08.982Z,-0.87
2018-03-17T10:30:35.507Z,-0.90
2018-03-17T10:33:01.769Z,-0.93
2018-03-17T10:35:29.097Z,-0.94
2018-03-17T10:37:56.402Z,-0.93
2018-03-17T10:40:23.750Z,-0.88
2018-03-17T10:42:50.513Z,-0.87
2018-03-17T10:45:16.751Z,-0.86
2018-03-17T10:50:46.074Z,-0.83
2018-03-17T10:53:13.837Z,-0.84
2018-03-17T10:58:45.137Z,-0.84
2018-03-17T11:01:17.348Z,-0.89
2018-03-17T11:09:49.902Z,-0.77
2018-03-17T11:12:17.056Z,-0.74
2018-03-17T11:14:43.264Z,-0.88
2018-03-17T11:17:10.708Z,-0.92
2018-03-17T11:22:41.068Z,-0.74
2018-03-17T11:25:07.273Z,-0.79
2018-03-17T11:27:54.461Z,-0.74
2018-03-17T11:33:23.934Z,-0.73
2018-03-17T11:35:50.698Z,-0.72
2018-03-17T11:38:16.987Z,-0.67
2018-03-17T11:40:43.245Z,-0.65
2018-03-17T11:43:10.400Z,-0.68
2018-03-17T11:48:43.584Z,-0.72
2018-03-17T11:51:10.008Z,-0.68
2018-03-17T12:11:56.375Z,-0.60
2018-03-17T12:14:22.631Z,-0.60
2018-03-17T12:16:48.733Z,-0.66
2018-03-17T12:19:14.890Z,-0.64
2018-03-17T12:21:41.133Z,-0.69
2018-03-17T12:24:07.284Z,-0.81
2018-03-17T12:26:33.412Z,-0.73
2018-03-17T12:28:59.581Z,-0.77
2018-03-17T12:31:25.770Z,-0.80
2018-03-17T12:33:51.877Z,-0.81
2018-03-17T12:36:18.009Z,-0.80
2018-03-17T12:38:44.176Z,-0.75
2018-03-17T12:41:10.455Z,-0.79
2018-03-17T12:43:36.641Z,-0.80
2018-03-17T12:46:02.916Z,-0.78
2018-03-17T12:48:29.083Z,-0.73
2018-03-17T12:50:55.231Z,-0.72
2018-03-17T12:53:21.367Z,-0.64
2018-03-17T12:55:47.522Z,-0.61
2018-03-17T12:58:13.695Z,-0.59
2018-03-17T13:00:39.849Z,-0.66
2018-03-17T13:03:05.945Z,-0.70
2018-03-17T13:05:32.103Z,-0.74
2018-03-17T13:07:59.233Z,-0.73
2018-03-17T13:10:25.341Z,-0.64
2018-03-17T13:12:51.479Z,-0.70
2018-03-17T13:15:17.814Z,-0.70
2018-03-17T13:17:43.949Z,-0.66
2018-03-17T13:20:10.159Z,-0.68
2018-03-17T13:22:48.426Z,-0.68
2018-03-17T13:25:14.627Z,-0.63
2018-03-17T13:27:53.157Z,-0.62
2018-03-17T13:30:19.335Z,-0.67
2018-03-17T13:32:55.564Z,-0.71
2018-03-17T13:35:21.692Z,-0.71
2018-03-17T13:37:47.791Z,-0.61
2018-03-17T13:40:25.994Z,-0.58
2018-03-17T13:42:52.101Z,-0.54
2018-03-17T13:45:18.240Z,-0.53
2018-03-17T13:47:44.397Z,-0.57
2018-03-17T13:50:10.595Z,-0.56
2018-03-17T13:52:36.736Z,-0.57
2018-03-17T13:55:04.601Z,-0.61
2018-03-17T14:24:56.850Z,-0.68
2018-03-17T15:01:14.736Z,-0.68
2018-03-17T15:37:12.907Z,-0.69
2018-03-17T15:54:53.783Z,-0.77
2018-03-17T15:57:34.836Z,-0.73
2018-03-17T16:00:01.155Z,-0.76
2018-03-17T16:08:34.204Z,-0.70
2018-03-17T16:13:58.306Z,-0.68
2018-03-17T16:25:32.784Z,-0.71
2018-03-17T16:31:15.706Z,-0.74
2018-03-17T16:36:44.310Z,-0.74
2018-03-17T16:39:10.561Z,-0.74
2018-03-17T16:41:36.704Z,-0.71
2018-03-17T16:44:02.946Z,-0.74
2018-03-17T16:46:29.200Z,-0.77
2018-03-17T16:48:55.405Z,-0.69
2018-03-17T16:51:21.559Z,-0.70
2018-03-17T16:53:47.690Z,-0.69
2018-03-17T16:56:13.871Z,-0.68
2018-03-17T16:58:40.038Z,-0.68
2018-03-17T17:01:06.405Z,-0.71
2018-03-17T17:03:32.637Z,-0.76
2018-03-17T17:05:59.195Z,-0.78
2018-03-17T17:08:25.404Z,-0.74
2018-03-17T17:10:51.627Z,-0.76
2018-03-17T17:13:17.856Z,-0.78
2018-03-17T17:15:44.050Z,-0.79
2018-03-17T17:18:10.283Z,-0.80
2018-03-17T17:20:36.565Z,-0.82
2018-03-17T17:23:02.805Z,-0.85
2018-03-17T17:25:29.080Z,-0.85
2018-03-17T17:27:55.757Z,-0.85
2018-03-17T17:30:23.699Z,-0.85
2018-03-17T17:32:49.933Z,-0.80
2018-03-17T17:35:17.053Z,-0.81
2018-03-17T17:37:43.272Z,-0.81
2018-03-17T17:40:09.482Z,-0.78
2018-03-17T17:42:35.745Z,-0.83
2018-03-17T17:45:01.925Z,-0.87
2018-03-17T17:47:28.094Z,-0.82
2018-03-17T17:49:54.310Z,-0.82
2018-03-17T17:52:20.547Z,-0.85
2018-03-17T17:54:46.754Z,-0.89
2018-03-17T17:57:13.019Z,-0.87
2018-03-17T17:59:39.494Z,-0.85
2018-03-17T18:02:05.665Z,-0.89
2018-03-17T18:04:31.899Z,-0.84
2018-03-17T18:06:58.098Z,-0.85
2018-03-17T18:09:24.470Z,-0.90
2018-03-17T18:11:50.679Z,-0.92
2018-03-17T18:14:16.882Z,-0.95
2018-03-17T18:16:43.125Z,-0.88
2018-03-17T18:19:09.312Z,-0.84
2018-03-17T18:21:35.487Z,-0.84
2018-03-17T18:24:01.703Z,-0.82
2018-03-17T18:26:27.911Z,-0.84
2018-03-17T18:28:54.575Z,-0.91
2018-03-17T18:31:20.861Z,-0.86
2018-03-17T18:33:47.047Z,-0.90
2018-03-17T18:36:14.992Z,-0.91
2018-03-17T18:38:43.450Z,-0.89
2018-03-17T18:41:09.671Z,-0.91
2018-03-17T18:43:36.903Z,-0.91
2018-03-17T18:46:03.276Z,-0.88
2018-03-17T18:48:29.464Z,-0.93
2018-03-17T18:50:56.676Z,-0.95
2018-03-17T18:53:23.017Z,-0.93
2018-03-17T18:55:49.273Z,-0.89
2018-03-17T18:58:15.562Z,-0.91
2018-03-17T19:00:42.581Z,-0.87
2018-03-17T19:03:08.831Z,-0.86
2018-03-17T19:05:36.309Z,-0.88
2018-03-17T19:08:02.571Z,-0.85
2018-03-17T19:10:29.568Z,-0.87
2018-03-17T19:12:55.765Z,-0.87
2018-03-17T19:15:22.673Z,-0.88
2018-03-17T19:17:48.819Z,-0.87
2018-03-17T19:20:15.053Z,-0.85
2018-03-17T19:22:41.208Z,-0.85
2018-03-17T19:25:07.497Z,-0.81
2018-03-17T19:27:33.759Z,-0.80
2018-03-17T19:29:59.990Z,-0.82
2018-03-17T19:32:26.228Z,-0.83
2018-03-17T19:34:52.415Z,-0.83
2018-03-17T19:37:19.014Z,-0.82
2018-03-17T19:39:45.271Z,-0.85
2018-03-17T19:42:11.459Z,-0.81
2018-03-17T19:44:37.682Z,-0.83
2018-03-17T19:47:03.911Z,-0.80
2018-03-17T19:49:30.118Z,-0.77
2018-03-17T19:51:56.361Z,-0.77
2018-03-17T19:54:23.087Z,-0.83
2018-03-17T19:56:49.285Z,-0.85
2018-03-17T19:59:15.481Z,-0.84
2018-03-17T20:01:42.248Z,-0.80
2018-03-17T20:04:19.400Z,-0.82
2018-03-17T20:06:46.284Z,-0.84
2018-03-17T20:09:13.171Z,-0.85
2018-03-17T20:11:39.421Z,-0.85
2018-03-17T20:14:05.642Z,-0.95
2018-03-17T20:16:31.912Z,-0.89
2018-03-17T20:18:58.190Z,-0.84
2018-03-17T20:21:24.484Z,-0.84
2018-03-17T20:23:50.708Z,-0.86
2018-03-17T20:26:17.091Z,-0.90
2018-03-17T20:28:43.334Z,-0.89
2018-03-17T20:31:10.108Z,-0.88
2018-03-17T20:33:36.329Z,-0.87
2018-03-17T20:36:03.218Z,-0.86
2018-03-17T20:38:29.460Z,-0.85
2018-03-17T20:40:55.671Z,-0.88
2018-03-17T20:43:22.309Z,-0.84
2018-03-17T20:45:49.185Z,-0.84
2018-03-17T20:48:15.328Z,-0.85
2018-03-17T20:50:41.503Z,-0.90
2018-03-17T20:53:07.704Z,-0.89
2018-03-17T20:55:33.889Z,-0.89
2018-03-17T20:58:00.173Z,-0.85
2018-03-17T21:00:26.384Z,-0.87
2018-03-17T21:02:52.660Z,-0.87
2018-03-17T21:05:18.919Z,-0.87
2018-03-17T21:07:45.123Z,-0.84
2018-03-17T21:10:11.385Z,-0.90
2018-03-17T21:12:37.623Z,-0.88
2018-03-17T21:15:03.855Z,-0.85
2018-03-17T21:17:30.071Z,-0.86
2018-03-17T21:19:56.295Z,-0.84
2018-03-17T21:22:22.533Z,-0.83
2018-03-17T21:24:48.721Z,-0.80
2018-03-17T21:27:14.947Z,-0.84
2018-03-17T21:29:41.134Z,-0.85
2018-03-17T21:32:07.345Z,-0.86
2018-03-17T21:34:33.528Z,-0.83
2018-03-17T21:36:59.652Z,-0.87
2018-03-17T21:39:25.836Z,-0.81
2018-03-17T21:41:52.116Z,-0.82
2018-03-17T21:44:18.287Z,-0.79
2018-03-17T21:46:44.442Z,-0.82
2018-03-17T21:49:10.664Z,-0.78
2018-03-17T21:51:36.886Z,-0.82
2018-03-17T21:54:03.046Z,-0.82
2018-03-17T21:56:29.432Z,-0.83
2018-03-17T21:58:55.661Z,-0.84
2018-03-17T22:01:21.862Z,-0.87
2018-03-17T22:03:48.101Z,-0.83
2018-03-17T22:06:14.352Z,-0.84
2018-03-17T22:08:40.613Z,-0.86
2018-03-17T22:11:06.857Z,-0.83
2018-03-17T22:13:32.983Z,-0.84
2018-03-17T22:15:59.125Z,-0.85
2018-03-17T22:18:25.342Z,-0.84
2018-03-17T22:20:51.593Z,-0.83
2018-03-17T22:23:17.819Z,-0.84
2018-03-17T22:25:43.971Z,-0.82
2018-03-17T22:28:10.231Z,-0.82
2018-03-17T22:30:36.432Z,-0.78
2018-03-17T22:33:02.649Z,-0.87
2018-03-17T22:35:28.757Z,-0.86
2018-03-17T22:37:54.942Z,-0.86
2018-03-17T22:40:21.145Z,-0.82
2018-03-17T22:42:47.346Z,-0.83
2018-03-17T22:45:13.607Z,-0.87
2018-03-17T22:47:39.802Z,-0.87
2018-03-17T22:50:05.981Z,-0.88
2018-03-17T22:52:32.202Z,-0.84
2018-03-17T22:54:58.416Z,-0.88
2018-03-17T22:57:24.654Z,-0.88
2018-03-17T22:59:50.852Z,-0.86
2018-03-17T23:02:17.076Z,-0.84
2018-03-17T23:04:43.190Z,-0.85
2018-03-17T23:07:09.418Z,-0.81
2018-03-17T23:09:35.607Z,-0.84
2018-03-17T23:12:01.882Z,-0.84
2018-03-17T23:14:28.041Z,-0.83
2018-03-17T23:16:54.229Z,-0.82
2018-03-17T23:19:20.391Z,-0.85
2018-03-17T23:21:46.623Z,-0.86
2018-03-17T23:24:12.853Z,-0.91
2018-03-17T23:26:39.040Z,-0.89
2018-03-17T23:29:05.300Z,-0.97
2018-03-17T23:31:31.592Z,-0.97
2018-03-17T23:33:57.851Z,-0.92
2018-03-17T23:36:24.062Z,-0.88
2018-03-17T23:38:50.254Z,-0.96
2018-03-17T23:41:16.524Z,-0.96
2018-03-17T23:43:42.811Z,-0.99
2018-03-17T23:46:09.112Z,-0.95
2018-03-17T23:48:35.343Z,-0.92
2018-03-17T23:51:01.576Z,-1.01
2018-03-17T23:53:27.788Z,-1.04
2018-03-17T23:55:54.027Z,-1.07
2018-03-17T23:58:20.295Z,-1.11
